createdAt,value
2024-03-07T00:00:40.431Z,12.45
2024-03-07T00:06:05.202Z,12.46
2024-03-07T00:11:10.349Z,12.43
2024-03-07T00:16:14.993Z,12.42
2024-03-07T00:21:19.644Z,12.43
2024-03-07T00:26:24.410Z,12.43
2024-03-07T00:31:30.547Z,12.42
2024-03-07T00:36:35.183Z,12.41
2024-03-07T00:41:39.565Z,12.40
2024-03-07T00:46:44.160Z,12.40
2024-03-07T00:51:48.596Z,12.41
2024-03-07T00:56:53.089Z,12.41
2024-03-07T01:01:57.418Z,12.40
2024-03-07T01:07:02.175Z,12.40
2024-03-07T01:12:07.496Z,12.39
2024-03-07T01:17:12.972Z,12.39
2024-03-07T01:22:17.387Z,12.39
2024-03-07T01:27:21.643Z,12.40
2024-03-07T01:32:26.003Z,12.39
2024-03-07T01:37:30.466Z,12.39
2024-03-07T01:42:34.952Z,12.38
2024-03-07T01:47:39.658Z,12.38
2024-03-07T01:52:44.381Z,12.39
2024-03-07T01:57:48.579Z,12.38
2024-03-07T02:02:54.144Z,12.36
2024-03-07T02:07:58.530Z,12.35
2024-03-07T02:13:03.647Z,12.34
2024-03-07T02:18:10.147Z,12.35
2024-03-07T02:23:16.186Z,12.33
2024-03-07T02:28:20.696Z,12.34
2024-03-07T02:33:25.362Z,12.33
2024-03-07T02:38:29.815Z,12.30
2024-03-07T02:43:34.190Z,12.29
2024-03-07T02:48:38.627Z,12.28
2024-03-07T02:53:43.616Z,12.26
2024-03-07T02:58:48.038Z,12.26
2024-03-07T03:03:52.821Z,12.25
2024-03-07T03:08:57.559Z,12.25
2024-03-07T03:14:01.706Z,12.25
2024-03-07T03:19:06.441Z,12.24
2024-03-07T03:24:11.372Z,12.25
2024-03-07T03:29:17.141Z,12.22
2024-03-07T03:34:21.892Z,12.22
2024-03-07T03:39:27.813Z,12.20
2024-03-07T03:44:32.287Z,12.20
2024-03-07T03:49:36.501Z,12.19
2024-03-07T03:54:40.919Z,12.19
2024-03-07T03:59:45.791Z,12.18
2024-03-07T04:04:50.481Z,12.17
2024-03-07T04:09:58.900Z,12.16
2024-03-07T04:15:04.651Z,12.14
2024-03-07T04:20:11.328Z,12.13
2024-03-07T04:25:16.349Z,12.12
2024-03-07T04:30:20.752Z,12.12
2024-03-07T04:35:25.047Z,12.10
2024-03-07T04:40:29.369Z,12.09
2024-03-07T04:45:33.672Z,12.08
2024-03-07T04:50:38.084Z,12.07
2024-03-07T04:55:42.195Z,12.06
2024-03-07T05:00:46.909Z,12.06
2024-03-07T05:05:51.233Z,12.05
2024-03-07T05:10:55.594Z,12.05
2024-03-07T05:16:00.792Z,12.02
2024-03-07T05:21:29.902Z,12.02
2024-03-07T05:26:41.343Z,12.03
2024-03-07T05:31:47.666Z,12.02
2024-03-07T05:36:52.250Z,11.99
2024-03-07T05:42:00.143Z,11.98
2024-03-07T05:47:05.118Z,11.95
2024-03-07T05:52:09.522Z,11.95
2024-03-07T05:57:14.155Z,11.93
2024-03-07T06:02:18.827Z,11.92
2024-03-07T06:07:23.492Z,11.91
2024-03-07T06:12:28.512Z,11.90
2024-03-07T06:17:33.433Z,11.88
2024-03-07T06:22:37.525Z,11.88
2024-03-07T06:27:49.685Z,11.87
2024-03-07T06:32:54.183Z,11.88
2024-03-07T06:37:58.354Z,11.87
2024-03-07T06:43:04.532Z,11.86
2024-03-07T06:48:09.507Z,11.83
2024-03-07T06:53:14.202Z,11.84
2024-03-07T06:58:18.647Z,11.83
2024-03-07T07:03:23.238Z,11.83
2024-03-07T07:08:30.617Z,11.82
2024-03-07T07:13:35.237Z,11.83
2024-03-07T07:18:40.008Z,11.81
2024-03-07T07:23:44.613Z,11.80
2024-03-07T07:28:49.173Z,11.79
2024-03-07T07:33:53.710Z,11.78
2024-03-07T07:38:59.109Z,11.79
2024-03-07T07:44:04.006Z,11.80
2024-03-07T07:49:08.462Z,11.81
2024-03-07T07:54:12.812Z,11.78
2024-03-07T07:59:17.454Z,11.78
2024-03-07T08:04:22.159Z,11.77
2024-03-07T08:09:27.157Z,11.76
2024-03-07T08:14:31.528Z,11.76
2024-03-07T08:19:36.187Z,11.75
2024-03-07T08:24:40.716Z,11.75
2024-03-07T08:29:45.222Z,11.75
2024-03-07T08:34:49.801Z,11.75
2024-03-07T08:39:54.111Z,11.74
2024-03-07T08:44:58.681Z,11.73
2024-03-07T08:50:06.929Z,11.73
2024-03-07T08:55:14.508Z,11.74
2024-03-07T09:00:24.335Z,11.74
2024-03-07T09:05:28.992Z,11.74
2024-03-07T09:10:33.769Z,11.74
2024-03-07T09:15:38.667Z,11.72
2024-03-07T09:20:43.081Z,11.73
2024-03-07T09:25:47.453Z,11.71
2024-03-07T09:30:54.160Z,11.70
2024-03-07T09:35:59.355Z,11.71
2024-03-07T09:41:03.874Z,11.72
2024-03-07T09:46:08.463Z,11.69
2024-03-07T09:51:14.066Z,11.67
2024-03-07T09:56:19.109Z,11.67
2024-03-07T10:01:24.101Z,11.66
2024-03-07T10:06:30.749Z,11.66
2024-03-07T10:11:35.917Z,11.66
2024-03-07T10:16:42.281Z,11.64
2024-03-07T10:21:46.708Z,11.63
2024-03-07T10:26:50.773Z,11.63
2024-03-07T10:32:04.514Z,11.66
2024-03-07T10:37:10.276Z,11.66
2024-03-07T10:42:15.909Z,11.65
2024-03-07T10:47:20.599Z,11.64
2024-03-07T10:52:30.856Z,11.62
2024-03-07T10:57:41.622Z,11.61
2024-03-07T11:02:47.868Z,11.63
2024-03-07T11:07:52.791Z,11.60
2024-03-07T11:12:58.486Z,11.59
2024-03-07T11:18:02.620Z,11.59
2024-03-07T11:23:21.049Z,11.58
2024-03-07T11:28:32.230Z,11.58
2024-03-07T11:33:40.472Z,11.57
2024-03-07T11:38:50.082Z,11.59
2024-03-07T11:43:56.031Z,11.55
2024-03-07T11:49:01.566Z,11.54
2024-03-07T11:54:05.980Z,11.55
2024-03-07T11:59:14.086Z,11.55
2024-03-07T12:04:18.505Z,11.54
2024-03-07T12:09:25.104Z,11.53
2024-03-07T12:14:29.962Z,11.52
2024-03-07T12:19:34.391Z,11.53
2024-03-07T12:24:38.827Z,11.53
2024-03-07T12:29:44.295Z,11.54
2024-03-07T12:34:48.713Z,11.55
2024-03-07T12:40:02.232Z,11.55
2024-03-07T12:45:07.679Z,11.55
2024-03-07T12:50:12.285Z,11.55
2024-03-07T12:55:19.037Z,11.53
2024-03-07T13:00:23.069Z,11.52
2024-03-07T13:05:27.204Z,11.49
2024-03-07T13:10:31.838Z,11.48
2024-03-07T13:15:38.201Z,11.46
2024-03-07T13:20:44.164Z,11.48
2024-03-07T13:25:49.514Z,11.46
2024-03-07T13:30:55.627Z,11.43
2024-03-07T13:36:02.152Z,11.43
2024-03-07T13:41:06.829Z,11.46
2024-03-07T13:46:12.994Z,11.42
2024-03-07T13:51:17.193Z,11.43
2024-03-07T13:56:41.426Z,11.45
2024-03-07T14:01:54.187Z,11.46
2024-03-07T14:07:34.097Z,11.44
2024-03-07T14:13:05.527Z,11.46
2024-03-07T14:18:36.568Z,11.44
2024-03-07T14:24:05.130Z,11.43
2024-03-07T14:29:19.220Z,11.45
2024-03-07T14:34:25.896Z,11.44
2024-03-07T14:39:30.513Z,11.42
2024-03-07T14:44:35.851Z,11.41
2024-03-07T14:49:40.443Z,11.41
2024-03-07T14:54:44.706Z,11.41
2024-03-07T14:59:49.934Z,11.40
2024-03-07T15:04:55.963Z,11.40
2024-03-07T15:10:00.320Z,11.38
2024-03-07T15:15:11.262Z,11.38
2024-03-07T15:20:23.552Z,11.36
2024-03-07T15:25:34.742Z,11.35
2024-03-07T15:30:39.965Z,11.36
2024-03-07T15:35:44.432Z,11.36
2024-03-07T15:40:48.628Z,11.33
2024-03-07T15:45:53.045Z,11.32
2024-03-07T15:50:58.623Z,11.30
2024-03-07T15:56:02.852Z,11.30
2024-03-07T16:01:07.538Z,11.29
2024-03-07T16:06:11.812Z,11.30
2024-03-07T16:11:20.001Z,11.29
2024-03-07T16:16:24.231Z,11.28
2024-03-07T16:21:28.847Z,11.27
2024-03-07T16:26:35.901Z,11.25
2024-03-07T16:31:40.387Z,11.23
2024-03-07T16:36:45.580Z,11.26
2024-03-07T16:41:50.199Z,11.25
2024-03-07T16:46:54.869Z,11.23
2024-03-07T16:51:59.095Z,11.22
2024-03-07T16:57:05.361Z,11.22
2024-03-07T17:02:10.790Z,11.22
2024-03-07T17:07:14.968Z,11.20
2024-03-07T17:12:19.322Z,11.19
2024-03-07T17:17:24.269Z,11.20
2024-03-07T17:22:28.378Z,11.20
2024-03-07T17:27:32.609Z,11.18
2024-03-07T17:32:39.193Z,11.19
2024-03-07T17:37:44.978Z,11.21
2024-03-07T17:42:51.017Z,11.18
2024-03-07T17:47:56.463Z,11.18
2024-03-07T17:53:01.739Z,11.19
2024-03-07T17:58:06.301Z,11.17
2024-03-07T18:03:10.682Z,11.16
2024-03-07T18:08:33.808Z,11.16
2024-03-07T18:13:42.334Z,11.16
2024-03-07T18:18:47.700Z,11.17
2024-03-07T18:23:52.077Z,11.15
2024-03-07T18:28:56.256Z,11.14
2024-03-07T18:34:00.791Z,11.11
2024-03-07T18:39:15.765Z,11.11
2024-03-07T18:44:20.215Z,11.13
2024-03-07T18:49:24.562Z,11.11
2024-03-07T18:54:28.666Z,11.11
2024-03-07T18:59:37.652Z,11.11
2024-03-07T19:04:45.029Z,11.10
2024-03-07T19:09:49.969Z,11.09
2024-03-07T19:14:54.647Z,11.08
2024-03-07T19:19:58.977Z,11.07
2024-03-07T19:25:04.785Z,11.06
2024-03-07T19:30:17.332Z,11.07
2024-03-07T19:35:21.607Z,11.06
2024-03-07T19:40:25.696Z,11.04
2024-03-07T19:45:29.829Z,11.03
2024-03-07T19:50:34.383Z,11.02
2024-03-07T19:55:38.591Z,11.01
2024-03-07T20:00:45.321Z,11.02
2024-03-07T20:05:49.955Z,11.00
2024-03-07T20:10:54.075Z,10.98
2024-03-07T20:16:01.723Z,10.98
2024-03-07T20:21:07.284Z,11.00
2024-03-07T20:26:11.408Z,10.97
2024-03-07T20:31:16.748Z,10.96
2024-03-07T20:36:21.210Z,10.95
2024-03-07T20:41:25.412Z,10.95
2024-03-07T20:46:31.257Z,10.95
2024-03-07T20:51:38.037Z,10.95
2024-03-07T20:56:49.719Z,10.93
2024-03-07T21:01:54.018Z,10.93
2024-03-07T21:06:58.143Z,10.91
2024-03-07T21:12:02.851Z,10.92
2024-03-07T21:17:12.001Z,10.91
2024-03-07T21:22:17.313Z,10.92
2024-03-07T21:27:21.601Z,10.90
2024-03-07T21:32:25.883Z,10.89
2024-03-07T21:37:31.901Z,10.89
2024-03-07T21:42:36.426Z,10.88
2024-03-07T21:47:41.919Z,10.85
2024-03-07T21:52:47.045Z,10.86
2024-03-07T21:57:55.315Z,10.85
2024-03-07T22:03:01.769Z,10.85
2024-03-07T22:08:08.168Z,10.84
2024-03-07T22:13:12.090Z,10.86
2024-03-07T22:18:16.421Z,10.83
2024-03-07T22:23:21.751Z,10.81
2024-03-07T22:28:26.079Z,10.81
2024-03-07T22:33:30.694Z,10.81
2024-03-07T22:38:34.969Z,10.81
2024-03-07T22:43:39.215Z,10.81
2024-03-07T22:48:43.690Z,10.79
2024-03-07T22:53:48.387Z,10.78
2024-03-07T22:58:53.420Z,10.77
2024-03-07T23:03:57.567Z,10.77
2024-03-07T23:09:02.625Z,10.77
2024-03-07T23:14:06.926Z,10.76
2024-03-07T23:19:12.862Z,10.76
2024-03-07T23:24:17.020Z,10.76
2024-03-07T23:29:21.368Z,10.73
2024-03-07T23:34:25.803Z,10.74
2024-03-07T23:39:30.661Z,10.73
2024-03-07T23:44:34.752Z,10.72
2024-03-07T23:49:39.032Z,10.73
2024-03-07T23:54:43.843Z,10.72
2024-03-07T23:59:49.419Z,10.70
